Observations

82.4 °F / 28.0 °C
ENE at 18 MPH gusting to 25 MPH
83%
76.8°F / 24.9 °C
29.78" (1008 mb)
10 mile(s)
mostly cloudy

Observations

Surface


Raw METARs

2019/01/21 07:40
PKWA 210740Z AUTO 07016G22KT 10SM SCT018 SCT024 BKN046 28/25 A2978 RMK AO2 T02800249

Translated METAR

Kwajalein, Bucholz AAF, Kwajalein KMR ATOL Airport, Marshall Islands (PKWA) 08-43N 167-44E 2M
Jan 21, 2019 - 02:40 AM EST / 2019.01.21 0740 UTC
Wind: from the ENE (070 degrees) at 18 MPH (16 KT) gusting to 25 MPH (22 KT):0
Visibility: 10 mile(s):0
Sky conditions: mostly cloudy
Temperature: 82.4 F (28.0 C)
Dew Point: 76.8 F (24.9 C)
Relative Humidity: 83%
Pressure (altimeter): 29.78 in. Hg (1008 hPa)
ob: PKWA 210740Z AUTO 07016G22KT 10SM SCT018 SCT024 BKN046 28/25 A2978 RMK AO2 T02800249
cycle: 7



Upper Air


Latest Skew-T

Skew T Diagram

Latest Data File